createdAt,value
2023-07-11T00:02:07.676Z,26.76
2023-07-11T00:05:16.354Z,26.75
2023-07-11T00:08:23.794Z,26.78
2023-07-11T00:11:29.823Z,26.76
2023-07-11T00:14:38.266Z,26.78
2023-07-11T00:17:46.496Z,26.67
2023-07-11T00:20:52.446Z,26.69
2023-07-11T00:24:05.420Z,26.67
2023-07-11T00:27:13.459Z,26.66
2023-07-11T00:30:19.241Z,26.51
2023-07-11T00:33:24.562Z,26.54
2023-07-11T00:36:30.374Z,26.32
2023-07-11T00:39:37.616Z,26.49
2023-07-11T00:42:43.511Z,26.43
2023-07-11T00:46:05.393Z,26.14
2023-07-11T00:49:14.639Z,26.04
2023-07-11T00:52:21.640Z,26.14
2023-07-11T00:55:27.750Z,26.09
2023-07-11T00:58:36.354Z,26.10
2023-07-11T01:01:47.072Z,26.17
2023-07-11T01:04:53.160Z,26.04
2023-07-11T01:08:01.130Z,25.98
2023-07-11T01:11:07.075Z,25.96
2023-07-11T01:14:14.991Z,26.05
2023-07-11T01:17:34.796Z,26.10
2023-07-11T01:20:40.704Z,26.03
2023-07-11T01:23:48.422Z,26.01
2023-07-11T01:26:58.171Z,25.98
2023-07-11T01:30:07.021Z,25.93
2023-07-11T01:33:14.982Z,26.01
2023-07-11T01:36:23.040Z,26.01
2023-07-11T01:39:29.201Z,25.95
2023-07-11T01:42:35.845Z,25.92
2023-07-11T01:45:42.140Z,25.91
2023-07-11T01:48:47.808Z,26.00
2023-07-11T01:52:10.203Z,25.92
2023-07-11T01:55:18.232Z,25.90
2023-07-11T01:58:24.354Z,25.81
2023-07-11T02:01:30.877Z,25.80
2023-07-11T02:04:38.063Z,25.73
2023-07-11T02:07:43.926Z,25.84
2023-07-11T02:10:49.400Z,25.78
2023-07-11T02:13:55.173Z,25.72
2023-07-11T02:17:01.373Z,25.68
2023-07-11T02:20:07.907Z,25.61
2023-07-11T02:23:17.671Z,25.68
2023-07-11T02:26:24.335Z,25.74
2023-07-11T02:29:30.180Z,25.69
2023-07-11T02:32:36.200Z,25.78
2023-07-11T02:35:42.221Z,25.71
2023-07-11T02:38:47.994Z,25.67
2023-07-11T02:41:53.544Z,25.48
2023-07-11T02:44:58.993Z,25.55
2023-07-11T02:48:05.507Z,25.58
2023-07-11T02:51:12.094Z,25.47
2023-07-11T02:54:17.753Z,25.23
2023-07-11T02:57:23.185Z,24.92
2023-07-11T03:00:28.724Z,24.95
2023-07-11T03:03:34.287Z,24.98
2023-07-11T03:06:39.918Z,25.08
2023-07-11T03:09:45.539Z,25.06
2023-07-11T03:12:51.276Z,25.21
2023-07-11T03:16:01.519Z,25.04
2023-07-11T03:19:07.565Z,24.98
2023-07-11T03:22:13.279Z,25.04
2023-07-11T03:25:19.396Z,24.98
2023-07-11T03:28:25.183Z,24.97
2023-07-11T03:31:30.691Z,24.82
2023-07-11T03:34:38.030Z,24.78
2023-07-11T03:37:47.308Z,24.95
2023-07-11T03:40:53.311Z,25.04
2023-07-11T03:43:59.043Z,25.00
2023-07-11T03:47:05.465Z,24.73
2023-07-11T03:50:12.194Z,24.81
2023-07-11T03:53:17.849Z,24.89
2023-07-11T03:56:25.015Z,25.01
2023-07-11T03:59:32.408Z,25.09
2023-07-11T04:02:38.027Z,24.96
2023-07-11T04:05:43.803Z,25.15
2023-07-11T04:08:50.096Z,25.22
2023-07-11T04:11:55.727Z,25.26
2023-07-11T04:15:01.244Z,25.36
2023-07-11T04:18:06.818Z,25.48
2023-07-11T04:21:13.044Z,25.60
2023-07-11T04:24:18.847Z,25.65
2023-07-11T04:27:26.590Z,25.66
2023-07-11T04:30:32.350Z,25.75
2023-07-11T04:33:38.312Z,25.65
2023-07-11T04:36:44.299Z,25.73
2023-07-11T04:39:49.854Z,25.76
2023-07-11T04:42:59.640Z,25.86
2023-07-11T04:46:07.322Z,25.95
2023-07-11T04:49:12.743Z,25.95
2023-07-11T04:52:18.208Z,26.04
2023-07-11T04:55:24.563Z,26.09
2023-07-11T04:58:31.320Z,26.29
2023-07-11T05:01:37.799Z,26.27
2023-07-11T05:04:43.451Z,26.47
2023-07-11T05:07:49.593Z,26.58
2023-07-11T05:11:00.908Z,26.77
2023-07-11T05:14:06.547Z,26.87
2023-07-11T05:17:12.211Z,27.07
2023-07-11T05:20:19.212Z,27.23
2023-07-11T05:23:30.459Z,27.15
2023-07-11T05:26:37.927Z,27.43
2023-07-11T05:29:43.846Z,27.50
2023-07-11T05:32:49.658Z,27.37
2023-07-11T05:36:33.284Z,27.43
2023-07-11T05:39:39.142Z,27.46
2023-07-11T05:42:44.619Z,27.48
2023-07-11T05:45:50.366Z,27.82
2023-07-11T05:48:59.006Z,27.65
2023-07-11T05:52:05.645Z,27.55
2023-07-11T05:55:11.368Z,27.88
2023-07-11T05:58:17.172Z,27.74
2023-07-11T06:01:27.024Z,27.91
2023-07-11T06:04:33.324Z,27.96
2023-07-11T06:07:39.736Z,27.98
2023-07-11T06:10:46.166Z,28.18
2023-07-11T06:13:52.053Z,28.04
2023-07-11T06:16:57.716Z,28.45
2023-07-11T06:20:05.000Z,28.53
2023-07-11T06:23:10.560Z,28.51
2023-07-11T06:26:17.026Z,28.61
2023-07-11T06:29:22.648Z,28.76
2023-07-11T06:32:28.646Z,28.74
2023-07-11T06:35:37.938Z,29.15
2023-07-11T06:38:43.609Z,28.95
2023-07-11T06:41:49.441Z,29.04
2023-07-11T06:45:04.676Z,28.91
2023-07-11T06:48:10.943Z,29.31
2023-07-11T06:51:16.630Z,29.41
2023-07-11T06:54:22.520Z,29.29
2023-07-11T06:57:28.398Z,29.49
2023-07-11T07:00:34.452Z,29.53
2023-07-11T07:03:40.575Z,29.87
2023-07-11T07:06:47.357Z,29.61
2023-07-11T07:09:52.980Z,29.88
2023-07-11T07:12:58.849Z,29.60
2023-07-11T07:16:06.071Z,29.82
2023-07-11T07:19:13.328Z,29.97
2023-07-11T07:22:18.771Z,29.89
2023-07-11T07:25:25.331Z,30.08
2023-07-11T07:28:32.752Z,30.23
2023-07-11T07:31:38.699Z,30.26
2023-07-11T07:34:44.919Z,30.03
2023-07-11T07:37:50.648Z,30.37
2023-07-11T07:40:58.680Z,30.44
2023-07-11T07:44:05.039Z,30.45
2023-07-11T07:47:11.082Z,30.54
2023-07-11T07:50:17.415Z,30.66
2023-07-11T07:53:22.893Z,30.76
2023-07-11T07:56:30.383Z,30.68
2023-07-11T07:59:36.206Z,30.62
2023-07-11T08:02:44.135Z,30.38
2023-07-11T08:05:52.145Z,30.54
2023-07-11T08:09:02.271Z,30.52
2023-07-11T08:12:12.549Z,30.67
2023-07-11T08:15:18.664Z,30.77
2023-07-11T08:18:24.353Z,30.90
2023-07-11T08:21:30.087Z,30.86
2023-07-11T08:24:36.022Z,30.71
2023-07-11T08:27:41.304Z,30.75
2023-07-11T08:30:48.186Z,30.86
2023-07-11T08:33:54.078Z,31.09
2023-07-11T08:36:59.637Z,31.06
2023-07-11T08:40:06.889Z,31.15
2023-07-11T08:43:21.424Z,31.09
2023-07-11T08:46:29.252Z,31.19
2023-07-11T08:49:43.983Z,30.91
2023-07-11T08:52:58.552Z,30.94
2023-07-11T08:56:20.825Z,30.83
2023-07-11T08:59:31.509Z,30.94
2023-07-11T09:02:51.900Z,31.39
2023-07-11T09:06:08.047Z,31.46
2023-07-11T09:09:13.890Z,31.17
2023-07-11T09:12:51.548Z,31.12
2023-07-11T09:16:18.597Z,31.70
2023-07-11T09:19:46.034Z,31.52
2023-07-11T09:23:29.823Z,31.51
2023-07-11T09:26:51.172Z,31.56
2023-07-11T09:29:57.654Z,31.62
2023-07-11T09:33:16.638Z,31.58
2023-07-11T09:36:35.396Z,31.48
2023-07-11T09:39:57.769Z,31.57
2023-07-11T09:43:05.503Z,31.83
2023-07-11T09:46:14.910Z,32.11
2023-07-11T09:49:25.799Z,32.16
2023-07-11T09:52:32.289Z,32.19
2023-07-11T09:55:38.675Z,32.16
2023-07-11T09:58:52.013Z,32.43
2023-07-11T10:02:00.143Z,32.27
2023-07-11T10:05:06.025Z,32.42
2023-07-11T10:08:19.259Z,32.44
2023-07-11T10:11:24.811Z,32.52
2023-07-11T10:14:43.494Z,32.38
2023-07-11T10:17:48.973Z,32.51
2023-07-11T10:21:02.523Z,32.56
2023-07-11T10:24:17.444Z,32.56
2023-07-11T10:27:31.249Z,32.28
2023-07-11T10:30:40.041Z,32.54
2023-07-11T10:34:00.753Z,32.58
2023-07-11T10:37:14.259Z,32.63
2023-07-11T10:40:37.733Z,32.77
2023-07-11T10:43:43.901Z,32.57
2023-07-11T10:46:53.251Z,32.66
2023-07-11T10:50:08.432Z,32.84
2023-07-11T10:53:38.130Z,32.81
2023-07-11T10:56:50.195Z,32.87
2023-07-11T10:59:55.526Z,32.75
2023-07-11T11:03:13.865Z,32.97
2023-07-11T11:06:32.612Z,32.85
2023-07-11T11:09:45.161Z,32.93
2023-07-11T11:13:18.670Z,33.04
2023-07-11T11:16:39.445Z,32.99
2023-07-11T11:20:18.189Z,32.93
2023-07-11T11:23:43.938Z,32.59
2023-07-11T11:27:11.384Z,32.69
2023-07-11T11:30:53.113Z,33.04
2023-07-11T11:34:38.379Z,33.27
2023-07-11T11:38:20.771Z,33.38
2023-07-11T11:41:37.813Z,33.44
2023-07-11T11:51:31.558Z,33.48
2023-07-11T11:54:46.140Z,33.34
2023-07-11T11:57:51.488Z,33.52
2023-07-11T12:00:58.261Z,33.36
2023-07-11T12:04:29.984Z,33.47
2023-07-11T12:07:43.843Z,33.59
2023-07-11T12:11:08.801Z,33.68
2023-07-11T12:14:27.100Z,33.75
2023-07-11T12:17:35.524Z,33.68
2023-07-11T12:20:40.906Z,33.59
2023-07-11T12:27:10.583Z,33.61
2023-07-11T12:30:15.640Z,33.58
2023-07-11T12:33:35.920Z,33.78
2023-07-11T12:36:41.361Z,33.76
2023-07-11T12:40:14.220Z,34.00
2023-07-11T12:43:31.944Z,33.62
2023-07-11T12:46:38.243Z,33.76
2023-07-11T12:49:48.546Z,33.92
2023-07-11T12:53:02.444Z,34.02
2023-07-11T12:56:15.320Z,34.17
2023-07-11T12:59:32.000Z,34.16
2023-07-11T13:02:37.308Z,34.10
2023-07-11T13:05:42.663Z,34.12
2023-07-11T13:08:48.448Z,33.98
2023-07-11T13:11:54.845Z,34.10
2023-07-11T13:15:26.124Z,34.27
2023-07-11T13:18:35.827Z,34.31
2023-07-11T13:21:40.852Z,34.04
2023-07-11T13:24:46.340Z,34.19
2023-07-11T13:27:53.157Z,34.28
2023-07-11T13:31:02.428Z,34.11
2023-07-11T13:34:17.014Z,34.45
2023-07-11T13:37:26.103Z,34.43
2023-07-11T13:40:37.584Z,34.34
2023-07-11T13:43:49.717Z,34.40
2023-07-11T13:46:55.642Z,34.50
2023-07-11T13:50:15.663Z,34.61
2023-07-11T13:53:21.309Z,34.80
2023-07-11T13:56:27.328Z,34.74
2023-07-11T14:02:43.591Z,34.44
2023-07-11T14:05:54.864Z,34.25
2023-07-11T14:09:01.908Z,34.74
2023-07-11T14:12:12.637Z,34.80
2023-07-11T14:15:24.911Z,34.76
2023-07-11T14:18:30.462Z,34.85
2023-07-11T14:21:36.072Z,35.12
2023-07-11T14:24:45.383Z,35.24
2023-07-11T14:27:54.133Z,35.17
2023-07-11T14:31:09.533Z,35.22
2023-07-11T14:34:27.777Z,35.18
2023-07-11T14:37:33.233Z,35.21
2023-07-11T14:40:38.784Z,35.26
2023-07-11T14:43:44.361Z,35.21
2023-07-11T14:46:52.009Z,35.35
2023-07-11T14:49:59.074Z,35.30
2023-07-11T14:53:04.642Z,35.31
2023-07-11T14:59:30.835Z,35.45
2023-07-11T15:02:38.077Z,35.35
2023-07-11T15:12:06.298Z,35.45
2023-07-11T15:15:25.326Z,35.47
2023-07-11T15:18:31.427Z,35.60
2023-07-11T15:21:36.861Z,35.54
2023-07-11T15:24:45.252Z,35.60
2023-07-11T15:27:51.110Z,35.59
2023-07-11T15:30:59.670Z,35.57
2023-07-11T15:34:11.952Z,35.88
2023-07-11T15:37:18.016Z,35.89
2023-07-11T15:40:26.543Z,35.72
2023-07-11T15:43:42.488Z,35.84
2023-07-11T15:46:48.297Z,35.72
2023-07-11T15:49:53.665Z,35.75
2023-07-11T15:53:00.831Z,35.65
2023-07-11T15:56:06.549Z,35.66
2023-07-11T15:59:21.416Z,35.58
2023-07-11T16:02:27.314Z,35.70
2023-07-11T16:05:37.643Z,35.74
2023-07-11T16:08:44.453Z,35.86
2023-07-11T16:11:51.218Z,35.87
2023-07-11T16:14:57.044Z,35.64
2023-07-11T16:18:02.972Z,35.64
2023-07-11T16:21:15.481Z,35.62
2023-07-11T16:24:24.962Z,35.72
2023-07-11T16:27:31.092Z,35.75
2023-07-11T16:30:36.617Z,35.74
2023-07-11T16:33:43.201Z,35.61
2023-07-11T16:36:52.285Z,35.70
2023-07-11T16:39:58.304Z,35.47
2023-07-11T16:43:05.969Z,35.39
2023-07-11T16:46:19.855Z,35.26
2023-07-11T16:49:25.667Z,35.19
2023-07-11T16:52:31.619Z,35.19
2023-07-11T16:55:37.257Z,34.98
2023-07-11T16:58:44.379Z,35.14
2023-07-11T17:01:52.393Z,35.05
2023-07-11T17:04:57.975Z,34.85
2023-07-11T17:08:21.332Z,34.76
2023-07-11T17:11:27.928Z,34.61
2023-07-11T17:14:33.670Z,34.42
2023-07-11T17:17:39.529Z,34.24
2023-07-11T17:20:45.765Z,34.17
2023-07-11T17:23:51.108Z,34.03
2023-07-11T17:26:59.940Z,33.99
2023-07-11T17:30:13.729Z,33.78
2023-07-11T17:33:21.919Z,33.91
2023-07-11T17:36:27.564Z,33.91
2023-07-11T17:39:33.440Z,33.83
2023-07-11T17:42:38.916Z,33.71
2023-07-11T17:46:00.560Z,33.62
2023-07-11T17:49:11.640Z,33.62
2023-07-11T17:52:24.031Z,33.61
2023-07-11T17:55:30.959Z,33.37
2023-07-11T17:58:37.187Z,33.21
2023-07-11T18:01:43.221Z,33.10
2023-07-11T18:04:51.695Z,33.05
2023-07-11T18:07:56.936Z,33.04
2023-07-11T18:11:02.406Z,32.99
2023-07-11T18:14:07.558Z,32.86
2023-07-11T18:17:25.134Z,32.82
2023-07-11T18:20:32.897Z,32.61
2023-07-11T18:23:38.791Z,32.52
2023-07-11T18:26:44.630Z,32.56
2023-07-11T18:29:50.170Z,32.57
2023-07-11T18:32:56.302Z,32.39
2023-07-11T18:36:01.812Z,32.14
2023-07-11T18:39:07.120Z,32.15
2023-07-11T18:42:24.472Z,32.08
2023-07-11T18:45:30.298Z,32.02
2023-07-11T18:48:36.080Z,31.99
2023-07-11T18:51:41.581Z,31.85
2023-07-11T18:54:47.332Z,31.75
2023-07-11T18:57:54.787Z,31.63
2023-07-11T19:01:00.543Z,31.54
2023-07-11T19:04:06.076Z,31.48
2023-07-11T19:07:21.154Z,31.36
2023-07-11T19:10:29.897Z,31.31
2023-07-11T19:13:35.533Z,31.24
2023-07-11T19:16:41.103Z,31.20
2023-07-11T19:19:48.824Z,31.17
2023-07-11T19:23:02.044Z,31.10
2023-07-11T19:26:18.982Z,31.06
2023-07-11T19:29:24.264Z,31.02
2023-07-11T19:32:29.533Z,30.89
2023-07-11T19:35:37.557Z,30.83
2023-07-11T19:38:44.118Z,30.70
2023-07-11T19:41:49.684Z,30.60
2023-07-11T19:44:55.234Z,30.57
2023-07-11T19:48:00.453Z,30.31
2023-07-11T19:51:06.119Z,30.15
2023-07-11T19:54:11.516Z,30.11
2023-07-11T19:57:20.067Z,30.02
2023-07-11T20:00:30.422Z,29.94
2023-07-11T20:03:36.667Z,29.87
2023-07-11T20:06:42.455Z,29.90
2023-07-11T20:09:48.300Z,29.80
2023-07-11T20:12:54.488Z,29.88
2023-07-11T20:16:24.100Z,29.79
2023-07-11T20:19:30.581Z,29.68
2023-07-11T20:22:36.453Z,29.61
2023-07-11T20:25:43.020Z,29.67
2023-07-11T20:28:49.457Z,29.65
2023-07-11T20:31:55.224Z,29.50
2023-07-11T20:35:00.834Z,29.46
2023-07-11T20:38:06.565Z,29.37
2023-07-11T20:41:14.132Z,29.31
2023-07-11T20:44:19.986Z,29.27
2023-07-11T20:47:25.522Z,29.15
2023-07-11T20:50:37.461Z,29.13
2023-07-11T20:53:43.891Z,29.16
2023-07-11T20:56:49.447Z,29.05
2023-07-11T20:59:55.626Z,29.10
2023-07-11T21:03:01.866Z,29.07
2023-07-11T21:06:24.264Z,29.02
2023-07-11T21:09:30.434Z,28.93
2023-07-11T21:12:36.315Z,28.92
2023-07-11T21:15:50.031Z,28.91
2023-07-11T21:19:00.959Z,28.87
2023-07-11T21:22:11.343Z,28.87
2023-07-11T21:25:18.379Z,28.83
2023-07-11T21:28:30.741Z,28.76
2023-07-11T21:31:37.236Z,28.67
2023-07-11T21:34:45.074Z,28.71
2023-07-11T21:37:51.912Z,28.68
2023-07-11T21:41:00.159Z,28.67
2023-07-11T21:44:05.641Z,28.51
2023-07-11T21:47:11.607Z,28.54
2023-07-11T21:50:17.283Z,28.56
2023-07-11T21:53:25.829Z,28.59
2023-07-11T21:56:31.821Z,28.54
2023-07-11T21:59:37.489Z,28.37
2023-07-11T22:02:43.919Z,28.43
2023-07-11T22:05:55.771Z,28.45
2023-07-11T22:09:01.269Z,28.50
2023-07-11T22:12:06.940Z,28.58
2023-07-11T22:15:12.415Z,28.46
2023-07-11T22:18:26.382Z,28.41
2023-07-11T22:21:32.568Z,28.50
2023-07-11T22:24:39.263Z,28.47
2023-07-11T22:27:45.053Z,28.48
2023-07-11T22:30:52.900Z,28.46
2023-07-11T22:33:58.260Z,28.46
2023-07-11T22:37:03.933Z,28.37
2023-07-11T22:40:15.802Z,28.31
2023-07-11T22:43:25.905Z,28.33
2023-07-11T22:46:31.556Z,28.17
2023-07-11T22:49:37.296Z,28.16
2023-07-11T22:52:42.769Z,28.21
2023-07-11T22:55:54.216Z,28.07
2023-07-11T22:58:59.967Z,28.18
2023-07-11T23:02:08.326Z,28.01
2023-07-11T23:05:14.035Z,28.14
2023-07-11T23:08:25.284Z,28.12
2023-07-11T23:11:31.121Z,27.91
2023-07-11T23:14:36.346Z,27.81
2023-07-11T23:17:42.665Z,27.90
2023-07-11T23:20:57.382Z,27.87
2023-07-11T23:24:03.318Z,27.84
2023-07-11T23:27:10.967Z,27.80
2023-07-11T23:30:40.345Z,27.83
2023-07-11T23:33:45.978Z,27.75
2023-07-11T23:36:51.506Z,27.78
2023-07-11T23:39:57.061Z,27.76
2023-07-11T23:43:05.094Z,27.74
2023-07-11T23:46:29.162Z,27.73
2023-07-11T23:49:34.735Z,27.69
2023-07-11T23:52:40.257Z,27.56
2023-07-11T23:55:51.849Z,27.55
2023-07-11T23:58:58.276Z,27.58
